sensor_id;sensor_type;location;lat;lon;timestamp;P1;durP1;ratioP1;P2;durP2;ratioP2
22644;SDS011;11489;50.834;6.752;2022-09-06T00:00:09;5.68;;;2.38;;
22644;SDS011;11489;50.834;6.752;2022-09-06T00:02:36;4.18;;;1.98;;
22644;SDS011;11489;50.834;6.752;2022-09-06T00:05:03;5.22;;;1.80;;
22644;SDS011;11489;50.834;6.752;2022-09-06T00:07:29;12.32;;;2.40;;
22644;SDS011;11489;50.834;6.752;2022-09-06T00:09:55;5.15;;;2.00;;
22644;SDS011;11489;50.834;6.752;2022-09-06T00:12:21;5.57;;;1.92;;
22644;SDS011;11489;50.834;6.752;2022-09-06T00:14:48;4.05;;;1.90;;
22644;SDS011;11489;50.834;6.752;2022-09-06T00:17:13;3.55;;;2.20;;
22644;SDS011;11489;50.834;6.752;2022-09-06T00:19:39;5.55;;;2.40;;
22644;SDS011;11489;50.834;6.752;2022-09-06T00:22:05;3.78;;;2.20;;
22644;SDS011;11489;50.834;6.752;2022-09-06T00:24:31;3.20;;;2.25;;
22644;SDS011;11489;50.834;6.752;2022-09-06T00:26:56;4.40;;;2.10;;
22644;SDS011;11489;50.834;6.752;2022-09-06T00:29:22;2.72;;;1.90;;
22644;SDS011;11489;50.834;6.752;2022-09-06T00:31:48;3.60;;;2.10;;
22644;SDS011;11489;50.834;6.752;2022-09-06T00:34:13;3.72;;;2.10;;
22644;SDS011;11489;50.834;6.752;2022-09-06T00:36:39;3.42;;;2.25;;
22644;SDS011;11489;50.834;6.752;2022-09-06T00:39:04;5.93;;;2.47;;
22644;SDS011;11489;50.834;6.752;2022-09-06T00:41:30;4.68;;;2.13;;
22644;SDS011;11489;50.834;6.752;2022-09-06T00:43:56;3.13;;;2.28;;
22644;SDS011;11489;50.834;6.752;2022-09-06T00:46:22;4.75;;;2.65;;
22644;SDS011;11489;50.834;6.752;2022-09-06T00:48:52;4.70;;;2.58;;
22644;SDS011;11489;50.834;6.752;2022-09-06T00:51:21;4.45;;;2.33;;
22644;SDS011;11489;50.834;6.752;2022-09-06T00:53:50;4.68;;;2.28;;
22644;SDS011;11489;50.834;6.752;2022-09-06T00:56:16;5.93;;;2.80;;
22644;SDS011;11489;50.834;6.752;2022-09-06T00:58:42;3.47;;;2.40;;
22644;SDS011;11489;50.834;6.752;2022-09-06T01:01:08;5.00;;;2.75;;
22644;SDS011;11489;50.834;6.752;2022-09-06T01:03:34;5.47;;;2.92;;
22644;SDS011;11489;50.834;6.752;2022-09-06T01:09:04;5.22;;;2.88;;
22644;SDS011;11489;50.834;6.752;2022-09-06T01:14:36;3.53;;;2.60;;
22644;SDS011;11489;50.834;6.752;2022-09-06T01:22:38;4.43;;;2.40;;
22644;SDS011;11489;50.834;6.752;2022-09-06T01:36:34;5.38;;;2.72;;
22644;SDS011;11489;50.834;6.752;2022-09-06T01:39:08;6.80;;;3.03;;
22644;SDS011;11489;50.834;6.752;2022-09-06T01:41:40;6.18;;;3.00;;
22644;SDS011;11489;50.834;6.752;2022-09-06T01:44:05;3.58;;;2.95;;
22644;SDS011;11489;50.834;6.752;2022-09-06T01:59:47;6.50;;;3.38;;
22644;SDS011;11489;50.834;6.752;2022-09-06T02:02:33;4.80;;;2.80;;
22644;SDS011;11489;50.834;6.752;2022-09-06T02:07:58;7.10;;;3.47;;
22644;SDS011;11489;50.834;6.752;2022-09-06T02:10:46;6.03;;;3.20;;
22644;SDS011;11489;50.834;6.752;2022-09-06T02:13:19;4.68;;;3.10;;
22644;SDS011;11489;50.834;6.752;2022-09-06T02:15:50;5.70;;;3.35;;
22644;SDS011;11489;50.834;6.752;2022-09-06T02:18:21;5.55;;;3.20;;
22644;SDS011;11489;50.834;6.752;2022-09-06T02:20:53;5.05;;;3.55;;
22644;SDS011;11489;50.834;6.752;2022-09-06T02:23:22;5.85;;;3.47;;
22644;SDS011;11489;50.834;6.752;2022-09-06T02:25:52;7.75;;;3.30;;
22644;SDS011;11489;50.834;6.752;2022-09-06T02:28:21;4.68;;;3.50;;
22644;SDS011;11489;50.834;6.752;2022-09-06T02:30:52;5.38;;;3.80;;
22644;SDS011;11489;50.834;6.752;2022-09-06T02:33:23;4.60;;;3.20;;
22644;SDS011;11489;50.834;6.752;2022-09-06T02:35:53;4.32;;;3.22;;
22644;SDS011;11489;50.834;6.752;2022-09-06T02:38:20;5.63;;;3.25;;
22644;SDS011;11489;50.834;6.752;2022-09-06T02:40:48;5.68;;;3.17;;
22644;SDS011;11489;50.834;6.752;2022-09-06T02:43:16;4.22;;;3.20;;
22644;SDS011;11489;50.834;6.752;2022-09-06T02:45:42;5.80;;;3.15;;
22644;SDS011;11489;50.834;6.752;2022-09-06T02:48:08;9.95;;;3.72;;
22644;SDS011;11489;50.834;6.752;2022-09-06T02:50:33;6.35;;;4.05;;
22644;SDS011;11489;50.834;6.752;2022-09-06T02:53:03;5.63;;;3.22;;
22644;SDS011;11489;50.834;6.752;2022-09-06T02:55:31;5.07;;;3.28;;
22644;SDS011;11489;50.834;6.752;2022-09-06T02:57:57;4.43;;;3.47;;
22644;SDS011;11489;50.834;6.752;2022-09-06T03:00:23;6.45;;;3.47;;
22644;SDS011;11489;50.834;6.752;2022-09-06T03:02:49;7.72;;;3.17;;
22644;SDS011;11489;50.834;6.752;2022-09-06T03:05:15;4.88;;;3.30;;
22644;SDS011;11489;50.834;6.752;2022-09-06T03:07:41;7.68;;;3.55;;
22644;SDS011;11489;50.834;6.752;2022-09-06T03:10:06;5.65;;;3.42;;
22644;SDS011;11489;50.834;6.752;2022-09-06T03:12:32;5.85;;;3.20;;
22644;SDS011;11489;50.834;6.752;2022-09-06T03:14:58;3.67;;;3.10;;
22644;SDS011;11489;50.834;6.752;2022-09-06T03:17:23;4.28;;;3.38;;
22644;SDS011;11489;50.834;6.752;2022-09-06T03:19:49;6.85;;;3.33;;
22644;SDS011;11489;50.834;6.752;2022-09-06T03:22:15;3.17;;;2.88;;
22644;SDS011;11489;50.834;6.752;2022-09-06T03:24:40;8.13;;;3.28;;
22644;SDS011;11489;50.834;6.752;2022-09-06T03:27:06;4.55;;;3.10;;
22644;SDS011;11489;50.834;6.752;2022-09-06T03:29:32;3.15;;;2.85;;
22644;SDS011;11489;50.834;6.752;2022-09-06T03:31:57;4.13;;;3.08;;
22644;SDS011;11489;50.834;6.752;2022-09-06T03:34:23;4.93;;;3.13;;
22644;SDS011;11489;50.834;6.752;2022-09-06T03:36:48;4.28;;;3.05;;
22644;SDS011;11489;50.834;6.752;2022-09-06T03:39:14;4.63;;;3.03;;
22644;SDS011;11489;50.834;6.752;2022-09-06T03:41:40;5.00;;;3.45;;
22644;SDS011;11489;50.834;6.752;2022-09-06T03:44:05;4.30;;;3.60;;
22644;SDS011;11489;50.834;6.752;2022-09-06T03:46:31;4.30;;;3.05;;
22644;SDS011;11489;50.834;6.752;2022-09-06T03:48:57;7.05;;;3.65;;
22644;SDS011;11489;50.834;6.752;2022-09-06T03:51:23;4.80;;;3.88;;
22644;SDS011;11489;50.834;6.752;2022-09-06T03:53:50;5.43;;;3.17;;
22644;SDS011;11489;50.834;6.752;2022-09-06T03:56:15;4.25;;;3.55;;
22644;SDS011;11489;50.834;6.752;2022-09-06T03:58:41;6.57;;;3.25;;
22644;SDS011;11489;50.834;6.752;2022-09-06T04:01:07;4.72;;;3.58;;
22644;SDS011;11489;50.834;6.752;2022-09-06T04:03:35;6.50;;;3.65;;
22644;SDS011;11489;50.834;6.752;2022-09-06T04:06:01;5.18;;;3.63;;
22644;SDS011;11489;50.834;6.752;2022-09-06T04:08:27;4.97;;;3.50;;
22644;SDS011;11489;50.834;6.752;2022-09-06T04:10:53;5.93;;;3.75;;
22644;SDS011;11489;50.834;6.752;2022-09-06T04:13:20;7.07;;;3.65;;
22644;SDS011;11489;50.834;6.752;2022-09-06T04:15:47;6.00;;;3.40;;
22644;SDS011;11489;50.834;6.752;2022-09-06T04:18:13;4.70;;;3.90;;
22644;SDS011;11489;50.834;6.752;2022-09-06T04:20:40;6.82;;;4.22;;
22644;SDS011;11489;50.834;6.752;2022-09-06T04:23:06;6.35;;;4.10;;
22644;SDS011;11489;50.834;6.752;2022-09-06T04:25:32;4.30;;;3.83;;
22644;SDS011;11489;50.834;6.752;2022-09-06T04:27:58;7.82;;;3.63;;
22644;SDS011;11489;50.834;6.752;2022-09-06T04:30:24;9.70;;;4.05;;
22644;SDS011;11489;50.834;6.752;2022-09-06T04:32:50;4.57;;;3.67;;
22644;SDS011;11489;50.834;6.752;2022-09-06T04:35:16;6.25;;;4.30;;
22644;SDS011;11489;50.834;6.752;2022-09-06T04:37:41;6.32;;;3.80;;
22644;SDS011;11489;50.834;6.752;2022-09-06T04:40:07;5.15;;;4.25;;
22644;SDS011;11489;50.834;6.752;2022-09-06T04:42:33;5.35;;;3.78;;
22644;SDS011;11489;50.834;6.752;2022-09-06T04:44:59;7.68;;;4.20;;
22644;SDS011;11489;50.834;6.752;2022-09-06T04:47:25;5.80;;;4.28;;
22644;SDS011;11489;50.834;6.752;2022-09-06T04:49:51;7.05;;;4.07;;
22644;SDS011;11489;50.834;6.752;2022-09-06T04:52:17;4.22;;;3.83;;
22644;SDS011;11489;50.834;6.752;2022-09-06T04:54:43;4.63;;;3.92;;
22644;SDS011;11489;50.834;6.752;2022-09-06T04:57:09;5.30;;;3.95;;
22644;SDS011;11489;50.834;6.752;2022-09-06T04:59:35;6.90;;;4.18;;
22644;SDS011;11489;50.834;6.752;2022-09-06T05:02:00;5.32;;;3.95;;
22644;SDS011;11489;50.834;6.752;2022-09-06T05:04:26;8.05;;;4.22;;
22644;SDS011;11489;50.834;6.752;2022-09-06T05:07:02;4.85;;;3.70;;
22644;SDS011;11489;50.834;6.752;2022-09-06T05:09:29;6.10;;;4.18;;
22644;SDS011;11489;50.834;6.752;2022-09-06T05:11:55;5.82;;;3.83;;
22644;SDS011;11489;50.834;6.752;2022-09-06T05:14:22;5.90;;;3.90;;
22644;SDS011;11489;50.834;6.752;2022-09-06T05:16:48;8.38;;;4.38;;
22644;SDS011;11489;50.834;6.752;2022-09-06T05:19:14;6.68;;;4.15;;
22644;SDS011;11489;50.834;6.752;2022-09-06T05:21:40;7.00;;;4.03;;
22644;SDS011;11489;50.834;6.752;2022-09-06T05:24:06;5.10;;;3.88;;
22644;SDS011;11489;50.834;6.752;2022-09-06T05:26:32;5.25;;;4.43;;
22644;SDS011;11489;50.834;6.752;2022-09-06T05:28:57;5.57;;;4.38;;
22644;SDS011;11489;50.834;6.752;2022-09-06T05:31:26;7.63;;;4.00;;
22644;SDS011;11489;50.834;6.752;2022-09-06T05:33:56;6.93;;;4.15;;
22644;SDS011;11489;50.834;6.752;2022-09-06T05:36:23;6.97;;;4.30;;
22644;SDS011;11489;50.834;6.752;2022-09-06T05:38:50;8.23;;;3.83;;
22644;SDS011;11489;50.834;6.752;2022-09-06T05:41:17;9.07;;;3.75;;
22644;SDS011;11489;50.834;6.752;2022-09-06T05:43:43;5.25;;;4.05;;
22644;SDS011;11489;50.834;6.752;2022-09-06T05:46:09;7.30;;;3.83;;
22644;SDS011;11489;50.834;6.752;2022-09-06T05:48:35;7.88;;;3.90;;
22644;SDS011;11489;50.834;6.752;2022-09-06T05:51:02;9.75;;;4.45;;
22644;SDS011;11489;50.834;6.752;2022-09-06T05:53:36;5.88;;;3.63;;
22644;SDS011;11489;50.834;6.752;2022-09-06T05:56:06;9.43;;;3.67;;
22644;SDS011;11489;50.834;6.752;2022-09-06T05:58:33;6.15;;;4.15;;
22644;SDS011;11489;50.834;6.752;2022-09-06T06:01:05;8.02;;;4.13;;
22644;SDS011;11489;50.834;6.752;2022-09-06T06:03:31;5.60;;;3.85;;
22644;SDS011;11489;50.834;6.752;2022-09-06T06:05:57;4.80;;;3.88;;
22644;SDS011;11489;50.834;6.752;2022-09-06T06:08:22;7.15;;;3.45;;
22644;SDS011;11489;50.834;6.752;2022-09-06T06:10:48;6.70;;;3.85;;
22644;SDS011;11489;50.834;6.752;2022-09-06T06:13:14;4.22;;;3.55;;
22644;SDS011;11489;50.834;6.752;2022-09-06T06:15:39;6.10;;;3.35;;
22644;SDS011;11489;50.834;6.752;2022-09-06T06:18:05;5.70;;;3.88;;
22644;SDS011;11489;50.834;6.752;2022-09-06T06:20:31;5.68;;;3.60;;
22644;SDS011;11489;50.834;6.752;2022-09-06T06:22:56;5.05;;;3.92;;
22644;SDS011;11489;50.834;6.752;2022-09-06T06:25:22;4.32;;;3.30;;
22644;SDS011;11489;50.834;6.752;2022-09-06T06:27:53;5.63;;;3.72;;
22644;SDS011;11489;50.834;6.752;2022-09-06T06:30:19;6.15;;;3.58;;
22644;SDS011;11489;50.834;6.752;2022-09-06T06:32:44;4.30;;;3.47;;
22644;SDS011;11489;50.834;6.752;2022-09-06T06:35:10;4.35;;;3.50;;
22644;SDS011;11489;50.834;6.752;2022-09-06T06:37:36;5.53;;;3.60;;
22644;SDS011;11489;50.834;6.752;2022-09-06T06:40:01;4.95;;;3.28;;
22644;SDS011;11489;50.834;6.752;2022-09-06T06:42:29;6.63;;;3.30;;
22644;SDS011;11489;50.834;6.752;2022-09-06T06:44:55;5.32;;;3.20;;
22644;SDS011;11489;50.834;6.752;2022-09-06T06:47:20;3.85;;;2.95;;
22644;SDS011;11489;50.834;6.752;2022-09-06T06:49:46;3.97;;;2.53;;
22644;SDS011;11489;50.834;6.752;2022-09-06T06:52:13;7.07;;;3.13;;
22644;SDS011;11489;50.834;6.752;2022-09-06T06:54:38;4.38;;;2.85;;
22644;SDS011;11489;50.834;6.752;2022-09-06T06:57:05;3.40;;;3.10;;
22644;SDS011;11489;50.834;6.752;2022-09-06T06:59:33;6.43;;;2.90;;
22644;SDS011;11489;50.834;6.752;2022-09-06T07:01:59;3.33;;;2.70;;
22644;SDS011;11489;50.834;6.752;2022-09-06T07:04:25;4.95;;;2.53;;
22644;SDS011;11489;50.834;6.752;2022-09-06T07:06:54;4.82;;;2.45;;
22644;SDS011;11489;50.834;6.752;2022-09-06T07:09:21;5.00;;;2.40;;
22644;SDS011;11489;50.834;6.752;2022-09-06T07:11:47;3.58;;;2.03;;
22644;SDS011;11489;50.834;6.752;2022-09-06T07:14:13;5.47;;;2.47;;
22644;SDS011;11489;50.834;6.752;2022-09-06T07:16:43;2.55;;;2.08;;
22644;SDS011;11489;50.834;6.752;2022-09-06T07:19:09;10.13;;;2.38;;
22644;SDS011;11489;50.834;6.752;2022-09-06T07:21:35;4.88;;;2.40;;
22644;SDS011;11489;50.834;6.752;2022-09-06T07:24:00;3.55;;;2.00;;
22644;SDS011;11489;50.834;6.752;2022-09-06T07:26:27;3.47;;;2.10;;
22644;SDS011;11489;50.834;6.752;2022-09-06T07:28:55;3.10;;;2.15;;
22644;SDS011;11489;50.834;6.752;2022-09-06T07:31:22;2.45;;;1.70;;
22644;SDS011;11489;50.834;6.752;2022-09-06T07:33:48;2.53;;;1.75;;
22644;SDS011;11489;50.834;6.752;2022-09-06T07:36:14;3.97;;;1.80;;
22644;SDS011;11489;50.834;6.752;2022-09-06T07:38:40;3.22;;;1.77;;
22644;SDS011;11489;50.834;6.752;2022-09-06T07:41:07;2.83;;;1.50;;
22644;SDS011;11489;50.834;6.752;2022-09-06T07:43:35;6.07;;;1.60;;
22644;SDS011;11489;50.834;6.752;2022-09-06T07:46:03;4.65;;;1.60;;
22644;SDS011;11489;50.834;6.752;2022-09-06T07:48:31;1.65;;;1.35;;
22644;SDS011;11489;50.834;6.752;2022-09-06T07:51:18;2.17;;;1.50;;
22644;SDS011;11489;50.834;6.752;2022-09-06T07:53:49;1.85;;;1.20;;
22644;SDS011;11489;50.834;6.752;2022-09-06T07:56:16;2.83;;;1.33;;
22644;SDS011;11489;50.834;6.752;2022-09-06T07:58:43;1.70;;;1.40;;
22644;SDS011;11489;50.834;6.752;2022-09-06T08:01:12;2.28;;;1.20;;
22644;SDS011;11489;50.834;6.752;2022-09-06T08:03:42;1.70;;;1.08;;
22644;SDS011;11489;50.834;6.752;2022-09-06T08:06:08;2.10;;;1.00;;
22644;SDS011;11489;50.834;6.752;2022-09-06T08:08:34;3.03;;;1.27;;
22644;SDS011;11489;50.834;6.752;2022-09-06T08:10:59;1.35;;;1.20;;
22644;SDS011;11489;50.834;6.752;2022-09-06T08:13:25;1.85;;;1.23;;
22644;SDS011;11489;50.834;6.752;2022-09-06T08:15:57;2.10;;;1.35;;
22644;SDS011;11489;50.834;6.752;2022-09-06T08:18:24;3.45;;;1.10;;
22644;SDS011;11489;50.834;6.752;2022-09-06T08:20:50;3.47;;;1.10;;
22644;SDS011;11489;50.834;6.752;2022-09-06T08:23:16;2.75;;;1.15;;
22644;SDS011;11489;50.834;6.752;2022-09-06T08:25:41;1.27;;;1.05;;
22644;SDS011;11489;50.834;6.752;2022-09-06T08:28:07;2.47;;;1.25;;
22644;SDS011;11489;50.834;6.752;2022-09-06T08:30:33;1.45;;;1.10;;
22644;SDS011;11489;50.834;6.752;2022-09-06T08:32:59;1.50;;;1.20;;
22644;SDS011;11489;50.834;6.752;2022-09-06T08:35:25;1.55;;;1.00;;
22644;SDS011;11489;50.834;6.752;2022-09-06T08:37:51;1.63;;;1.00;;
22644;SDS011;11489;50.834;6.752;2022-09-06T08:40:19;2.75;;;0.90;;
22644;SDS011;11489;50.834;6.752;2022-09-06T08:42:46;1.08;;;0.90;;
22644;SDS011;11489;50.834;6.752;2022-09-06T08:45:14;1.50;;;0.93;;
22644;SDS011;11489;50.834;6.752;2022-09-06T08:47:43;2.05;;;1.00;;
22644;SDS011;11489;50.834;6.752;2022-09-06T08:50:09;1.52;;;0.77;;
22644;SDS011;11489;50.834;6.752;2022-09-06T08:52:41;1.77;;;1.08;;
22644;SDS011;11489;50.834;6.752;2022-09-06T08:55:32;2.65;;;0.90;;
22644;SDS011;11489;50.834;6.752;2022-09-06T08:58:10;2.75;;;1.00;;
22644;SDS011;11489;50.834;6.752;2022-09-06T09:01:10;1.00;;;0.80;;
22644;SDS011;11489;50.834;6.752;2022-09-06T09:03:43;2.97;;;0.98;;
22644;SDS011;11489;50.834;6.752;2022-09-06T09:06:11;2.95;;;1.00;;
22644;SDS011;11489;50.834;6.752;2022-09-06T09:11:19;1.00;;;0.80;;
22644;SDS011;11489;50.834;6.752;2022-09-06T09:16:18;2.28;;;0.70;;
22644;SDS011;11489;50.834;6.752;2022-09-06T09:18:46;0.80;;;0.80;;
22644;SDS011;11489;50.834;6.752;2022-09-06T09:21:18;1.73;;;0.70;;
22644;SDS011;11489;50.834;6.752;2022-09-06T09:23:50;0.75;;;0.75;;
22644;SDS011;11489;50.834;6.752;2022-09-06T09:26:21;1.52;;;0.90;;
22644;SDS011;11489;50.834;6.752;2022-09-06T09:29:00;2.22;;;0.80;;
22644;SDS011;11489;50.834;6.752;2022-09-06T09:31:32;2.20;;;0.98;;
22644;SDS011;11489;50.834;6.752;2022-09-06T09:34:00;4.32;;;0.93;;
22644;SDS011;11489;50.834;6.752;2022-09-06T09:36:29;5.20;;;1.08;;
22644;SDS011;11489;50.834;6.752;2022-09-06T09:38:55;1.25;;;0.80;;
22644;SDS011;11489;50.834;6.752;2022-09-06T09:41:32;1.50;;;1.30;;
22644;SDS011;11489;50.834;6.752;2022-09-06T09:44:04;1.13;;;0.90;;
22644;SDS011;11489;50.834;6.752;2022-09-06T09:46:37;4.00;;;0.85;;
22644;SDS011;11489;50.834;6.752;2022-09-06T09:52:11;1.40;;;1.08;;
22644;SDS011;11489;50.834;6.752;2022-09-06T09:54:42;0.98;;;0.90;;
22644;SDS011;11489;50.834;6.752;2022-09-06T09:57:13;3.42;;;0.98;;
22644;SDS011;11489;50.834;6.752;2022-09-06T09:59:46;2.03;;;1.02;;
22644;SDS011;11489;50.834;6.752;2022-09-06T10:02:29;2.65;;;0.82;;
22644;SDS011;11489;50.834;6.752;2022-09-06T10:05:04;6.38;;;0.82;;
22644;SDS011;11489;50.834;6.752;2022-09-06T10:10:22;5.63;;;1.00;;
22644;SDS011;11489;50.834;6.752;2022-09-06T10:15:47;1.67;;;1.02;;
22644;SDS011;11489;50.834;6.752;2022-09-06T10:18:36;1.65;;;0.80;;
22644;SDS011;11489;50.834;6.752;2022-09-06T10:21:11;2.20;;;0.90;;
22644;SDS011;11489;50.834;6.752;2022-09-06T10:24:00;1.92;;;1.00;;
22644;SDS011;11489;50.834;6.752;2022-09-06T10:29:31;3.70;;;0.90;;
22644;SDS011;11489;50.834;6.752;2022-09-06T10:32:10;2.72;;;0.90;;
22644;SDS011;11489;50.834;6.752;2022-09-06T10:34:57;2.67;;;0.80;;
22644;SDS011;11489;50.834;6.752;2022-09-06T10:50:32;1.77;;;0.80;;
22644;SDS011;11489;50.834;6.752;2022-09-06T10:53:25;2.53;;;0.90;;
22644;SDS011;11489;50.834;6.752;2022-09-06T10:56:02;1.15;;;1.00;;
22644;SDS011;11489;50.834;6.752;2022-09-06T11:01:17;3.05;;;1.00;;
22644;SDS011;11489;50.834;6.752;2022-09-06T11:03:59;4.72;;;1.05;;
22644;SDS011;11489;50.834;6.752;2022-09-06T11:06:27;1.98;;;0.85;;
22644;SDS011;11489;50.834;6.752;2022-09-06T11:09:08;3.38;;;1.10;;
22644;SDS011;11489;50.834;6.752;2022-09-06T11:11:39;3.83;;;1.00;;
22644;SDS011;11489;50.834;6.752;2022-09-06T11:14:28;8.13;;;1.10;;
22644;SDS011;11489;50.834;6.752;2022-09-06T11:16:59;0.85;;;0.85;;
22644;SDS011;11489;50.834;6.752;2022-09-06T11:19:31;0.90;;;0.90;;
22644;SDS011;11489;50.834;6.752;2022-09-06T11:22:25;3.15;;;1.00;;
22644;SDS011;11489;50.834;6.752;2022-09-06T11:25:14;1.35;;;0.90;;
22644;SDS011;11489;50.834;6.752;2022-09-06T11:27:53;1.42;;;1.00;;
22644;SDS011;11489;50.834;6.752;2022-09-06T11:30:21;3.40;;;0.90;;
22644;SDS011;11489;50.834;6.752;2022-09-06T11:32:49;1.13;;;0.90;;
22644;SDS011;11489;50.834;6.752;2022-09-06T11:35:23;3.15;;;0.93;;
22644;SDS011;11489;50.834;6.752;2022-09-06T11:38:00;3.85;;;1.13;;
22644;SDS011;11489;50.834;6.752;2022-09-06T11:40:36;1.17;;;0.95;;
22644;SDS011;11489;50.834;6.752;2022-09-06T11:46:03;2.97;;;1.30;;
22644;SDS011;11489;50.834;6.752;2022-09-06T11:48:29;0.95;;;0.90;;
22644;SDS011;11489;50.834;6.752;2022-09-06T11:51:02;5.22;;;1.35;;
22644;SDS011;11489;50.834;6.752;2022-09-06T11:53:31;2.33;;;1.10;;
22644;SDS011;11489;50.834;6.752;2022-09-06T11:58:29;1.92;;;1.08;;
22644;SDS011;11489;50.834;6.752;2022-09-06T12:06:16;0.93;;;0.93;;
22644;SDS011;11489;50.834;6.752;2022-09-06T12:08:44;6.07;;;1.10;;
22644;SDS011;11489;50.834;6.752;2022-09-06T12:11:22;5.15;;;1.02;;
22644;SDS011;11489;50.834;6.752;2022-09-06T12:30:00;3.65;;;1.30;;
22644;SDS011;11489;50.834;6.752;2022-09-06T12:32:44;3.83;;;1.00;;
22644;SDS011;11489;50.834;6.752;2022-09-06T12:35:25;1.98;;;1.15;;
22644;SDS011;11489;50.834;6.752;2022-09-06T12:37:59;2.30;;;1.30;;
22644;SDS011;11489;50.834;6.752;2022-09-06T12:40:31;1.08;;;0.93;;
22644;SDS011;11489;50.834;6.752;2022-09-06T12:43:01;1.52;;;1.27;;
22644;SDS011;11489;50.834;6.752;2022-09-06T12:45:28;1.33;;;1.13;;
22644;SDS011;11489;50.834;6.752;2022-09-06T12:48:05;1.90;;;1.13;;
22644;SDS011;11489;50.834;6.752;2022-09-06T12:50:33;6.57;;;1.40;;
22644;SDS011;11489;50.834;6.752;2022-09-06T12:53:01;3.80;;;1.30;;
22644;SDS011;11489;50.834;6.752;2022-09-06T12:55:32;2.88;;;1.20;;
22644;SDS011;11489;50.834;6.752;2022-09-06T12:58:07;1.98;;;1.35;;
22644;SDS011;11489;50.834;6.752;2022-09-06T13:00:36;2.83;;;1.13;;
22644;SDS011;11489;50.834;6.752;2022-09-06T13:05:50;3.30;;;1.38;;
22644;SDS011;11489;50.834;6.752;2022-09-06T13:08:22;3.40;;;1.33;;
22644;SDS011;11489;50.834;6.752;2022-09-06T13:10:56;2.15;;;1.02;;
22644;SDS011;11489;50.834;6.752;2022-09-06T13:13:22;2.00;;;1.23;;
22644;SDS011;11489;50.834;6.752;2022-09-06T13:15:50;5.47;;;1.75;;
22644;SDS011;11489;50.834;6.752;2022-09-06T13:18:17;1.73;;;1.25;;
22644;SDS011;11489;50.834;6.752;2022-09-06T13:20:59;2.50;;;1.15;;
22644;SDS011;11489;50.834;6.752;2022-09-06T13:23:27;1.45;;;1.00;;
22644;SDS011;11489;50.834;6.752;2022-09-06T13:25:54;1.20;;;1.10;;
22644;SDS011;11489;50.834;6.752;2022-09-06T13:28:28;1.40;;;1.27;;
22644;SDS011;11489;50.834;6.752;2022-09-06T13:31:12;2.20;;;1.23;;
22644;SDS011;11489;50.834;6.752;2022-09-06T13:33:53;3.22;;;1.40;;
22644;SDS011;11489;50.834;6.752;2022-09-06T13:36:30;3.05;;;1.33;;
22644;SDS011;11489;50.834;6.752;2022-09-06T13:38:57;4.50;;;1.20;;
22644;SDS011;11489;50.834;6.752;2022-09-06T13:46:32;3.40;;;1.10;;
22644;SDS011;11489;50.834;6.752;2022-09-06T13:49:00;2.65;;;1.17;;
22644;SDS011;11489;50.834;6.752;2022-09-06T13:51:26;3.15;;;1.08;;
22644;SDS011;11489;50.834;6.752;2022-09-06T13:54:05;1.63;;;0.98;;
22644;SDS011;11489;50.834;6.752;2022-09-06T13:56:32;1.45;;;0.80;;
22644;SDS011;11489;50.834;6.752;2022-09-06T13:58:57;1.40;;;0.85;;
22644;SDS011;11489;50.834;6.752;2022-09-06T14:01:23;2.20;;;0.80;;
22644;SDS011;11489;50.834;6.752;2022-09-06T14:03:50;0.93;;;0.73;;
22644;SDS011;11489;50.834;6.752;2022-09-06T14:06:16;2.88;;;0.90;;
22644;SDS011;11489;50.834;6.752;2022-09-06T14:08:42;2.40;;;0.90;;
22644;SDS011;11489;50.834;6.752;2022-09-06T14:11:08;0.80;;;0.80;;
22644;SDS011;11489;50.834;6.752;2022-09-06T14:13:33;2.65;;;0.82;;
22644;SDS011;11489;50.834;6.752;2022-09-06T14:15:59;0.90;;;0.80;;
22644;SDS011;11489;50.834;6.752;2022-09-06T14:18:25;2.58;;;0.75;;
22644;SDS011;11489;50.834;6.752;2022-09-06T14:20:51;0.80;;;0.80;;
22644;SDS011;11489;50.834;6.752;2022-09-06T14:23:18;1.30;;;0.70;;
22644;SDS011;11489;50.834;6.752;2022-09-06T14:25:44;1.50;;;0.80;;
22644;SDS011;11489;50.834;6.752;2022-09-06T14:28:10;1.00;;;0.80;;
22644;SDS011;11489;50.834;6.752;2022-09-06T14:30:35;0.77;;;0.77;;
22644;SDS011;11489;50.834;6.752;2022-09-06T14:33:02;1.08;;;0.70;;
22644;SDS011;11489;50.834;6.752;2022-09-06T14:35:29;0.85;;;0.70;;
22644;SDS011;11489;50.834;6.752;2022-09-06T14:37:56;0.75;;;0.75;;
22644;SDS011;11489;50.834;6.752;2022-09-06T14:40:22;0.70;;;0.70;;
22644;SDS011;11489;50.834;6.752;2022-09-06T14:42:48;1.30;;;0.93;;
22644;SDS011;11489;50.834;6.752;2022-09-06T14:45:14;1.65;;;0.90;;
22644;SDS011;11489;50.834;6.752;2022-09-06T14:47:40;3.85;;;0.90;;
22644;SDS011;11489;50.834;6.752;2022-09-06T14:50:05;0.88;;;0.80;;
22644;SDS011;11489;50.834;6.752;2022-09-06T14:52:32;1.75;;;1.00;;
22644;SDS011;11489;50.834;6.752;2022-09-06T14:54:57;4.20;;;0.80;;
22644;SDS011;11489;50.834;6.752;2022-09-06T14:57:23;1.77;;;0.75;;
22644;SDS011;11489;50.834;6.752;2022-09-06T14:59:49;2.83;;;0.80;;
22644;SDS011;11489;50.834;6.752;2022-09-06T15:02:15;0.98;;;0.80;;
22644;SDS011;11489;50.834;6.752;2022-09-06T15:04:40;3.85;;;1.00;;
22644;SDS011;11489;50.834;6.752;2022-09-06T15:07:06;1.92;;;1.00;;
22644;SDS011;11489;50.834;6.752;2022-09-06T15:09:34;1.70;;;0.80;;
22644;SDS011;11489;50.834;6.752;2022-09-06T15:12:00;1.08;;;0.80;;
22644;SDS011;11489;50.834;6.752;2022-09-06T15:14:26;1.48;;;0.90;;
22644;SDS011;11489;50.834;6.752;2022-09-06T15:16:57;1.27;;;0.80;;
22644;SDS011;11489;50.834;6.752;2022-09-06T15:19:24;5.38;;;1.20;;
22644;SDS011;11489;50.834;6.752;2022-09-06T15:21:52;1.30;;;0.95;;
22644;SDS011;11489;50.834;6.752;2022-09-06T15:24:18;3.15;;;0.90;;
22644;SDS011;11489;50.834;6.752;2022-09-06T15:26:44;1.83;;;1.00;;
22644;SDS011;11489;50.834;6.752;2022-09-06T15:29:11;1.33;;;0.82;;
22644;SDS011;11489;50.834;6.752;2022-09-06T15:31:37;0.88;;;0.80;;
22644;SDS011;11489;50.834;6.752;2022-09-06T15:34:04;1.30;;;0.98;;
22644;SDS011;11489;50.834;6.752;2022-09-06T15:36:31;1.73;;;1.13;;
22644;SDS011;11489;50.834;6.752;2022-09-06T15:38:58;1.83;;;0.70;;
22644;SDS011;11489;50.834;6.752;2022-09-06T15:41:26;2.17;;;0.80;;
22644;SDS011;11489;50.834;6.752;2022-09-06T15:43:54;1.08;;;0.93;;
22644;SDS011;11489;50.834;6.752;2022-09-06T15:49:00;1.08;;;0.82;;
22644;SDS011;11489;50.834;6.752;2022-09-06T15:51:29;1.77;;;0.77;;
22644;SDS011;11489;50.834;6.752;2022-09-06T15:53:57;1.00;;;0.90;;
22644;SDS011;11489;50.834;6.752;2022-09-06T15:56:23;1.30;;;0.80;;
22644;SDS011;11489;50.834;6.752;2022-09-06T15:58:48;0.93;;;0.80;;
22644;SDS011;11489;50.834;6.752;2022-09-06T16:01:16;0.80;;;0.80;;
22644;SDS011;11489;50.834;6.752;2022-09-06T16:03:46;1.40;;;0.93;;
22644;SDS011;11489;50.834;6.752;2022-09-06T16:08:57;1.10;;;0.85;;
22644;SDS011;11489;50.834;6.752;2022-09-06T16:11:25;1.20;;;0.88;;
22644;SDS011;11489;50.834;6.752;2022-09-06T16:13:52;2.42;;;0.80;;
22644;SDS011;11489;50.834;6.752;2022-09-06T16:16:18;1.58;;;0.90;;
22644;SDS011;11489;50.834;6.752;2022-09-06T16:18:45;1.70;;;1.40;;
22644;SDS011;11489;50.834;6.752;2022-09-06T16:21:12;1.52;;;1.30;;
22644;SDS011;11489;50.834;6.752;2022-09-06T16:23:48;2.28;;;1.30;;
22644;SDS011;11489;50.834;6.752;2022-09-06T16:26:16;1.85;;;1.20;;
22644;SDS011;11489;50.834;6.752;2022-09-06T16:28:42;14.02;;;1.13;;
22644;SDS011;11489;50.834;6.752;2022-09-06T16:31:08;0.98;;;0.80;;
22644;SDS011;11489;50.834;6.752;2022-09-06T16:33:34;1.75;;;1.00;;
22644;SDS011;11489;50.834;6.752;2022-09-06T16:36:04;6.25;;;1.00;;
22644;SDS011;11489;50.834;6.752;2022-09-06T16:38:33;1.10;;;0.90;;
22644;SDS011;11489;50.834;6.752;2022-09-06T16:41:00;2.13;;;0.90;;
22644;SDS011;11489;50.834;6.752;2022-09-06T16:43:34;1.83;;;0.93;;
22644;SDS011;11489;50.834;6.752;2022-09-06T16:46:01;1.98;;;0.88;;
22644;SDS011;11489;50.834;6.752;2022-09-06T16:48:28;3.42;;;1.00;;